Time;durP1;ratioP1;P1;durP2;ratioP2;P2;SDS_P1;SDS_P2;PMS_P1;PMS_P2;Temp;Humidity;BMP_temperature;BMP_pressure;BME280_temperature;BME280_humidity;BME280_pressure;Samples;Min_cycle;Max_cycle;Signal;HPM_P1;HPM_P2
2024/01/17 00:01:18;;;;;;;46.70;16.02;;;;;;;-3.18;100.00;99538.59;7322419;19;20198;-37
2024/01/17 00:03:47;;;;;;;33.60;13.55;;;;;;;-3.20;100.00;99541.75;7344788;19;20209;-38
2024/01/17 00:06:17;;;;;;;41.38;8.57;;;;;;;-3.25;100.00;99538.88;7329667;19;20566;-38
2024/01/17 00:08:49;;;;;;;38.78;16.27;;;;;;;-3.13;100.00;99519.66;7350217;19;20209;-39
2024/01/17 00:11:19;;;;;;;27.40;10.07;;;;;;;-3.17;100.00;99522.69;7330731;19;20230;-37
2024/01/17 00:13:48;;;;;;;28.52;13.15;;;;;;;-3.17;100.00;99520.16;7350097;19;20219;-37
2024/01/17 00:16:23;;;;;;;26.13;13.00;;;;;;;-3.28;100.00;99513.44;7330353;19;20204;-42
2024/01/17 00:18:55;;;;;;;18.48;8.55;;;;;;;-3.30;100.00;99510.78;7327942;19;20704;-37
2024/01/17 00:21:25;;;;;;;15.05;8.00;;;;;;;-3.27;100.00;99507.63;7351993;19;20547;-40
2024/01/17 00:23:58;;;;;;;15.50;6.13;;;;;;;-3.33;100.00;99509.69;7330129;19;20693;-42
2024/01/17 00:26:27;;;;;;;15.77;7.03;;;;;;;-3.33;100.00;99510.53;7350059;19;20198;-39
2024/01/17 00:28:57;;;;;;;29.48;10.20;;;;;;;-3.31;100.00;99495.53;7328493;19;20230;-38
2024/01/17 00:31:27;;;;;;;23.02;8.98;;;;;;;-3.37;100.00;99492.53;7350788;19;20198;-37
2024/01/17 00:33:56;;;;;;;13.02;6.78;;;;;;;-3.34;100.00;99487.75;7329127;19;20669;-40
2024/01/17 00:36:26;;;;;;;15.93;7.20;;;;;;;-3.40;100.00;99488.13;7350745;19;20681;-37
2024/01/17 00:38:58;;;;;;;24.52;10.98;;;;;;;-3.37;100.00;99480.81;7329223;19;20202;-39
2024/01/17 00:41:28;;;;;;;25.02;10.00;;;;;;;-3.36;100.00;99476.63;7350820;19;20197;-37
2024/01/17 00:43:58;;;;;;;28.33;11.48;;;;;;;-3.33;100.00;99484.44;7329156;19;20198;-39
2024/01/17 00:46:27;;;;;;;13.30;5.63;;;;;;;-3.44;100.00;99474.41;7348804;19;20201;-39
2024/01/17 00:48:57;;;;;;;21.15;10.18;;;;;;;-3.34;100.00;99472.59;7327787;19;20745;-38
2024/01/17 00:51:27;;;;;;;28.38;11.63;;;;;;;-3.34;100.00;99463.38;7351061;19;20194;-37
2024/01/17 00:53:59;;;;;;;32.22;12.13;;;;;;;-3.33;100.00;99457.56;7329007;19;20266;-40
2024/01/17 00:56:32;;;;;;;17.48;7.05;;;;;;;-3.39;100.00;99470.59;7350901;19;20200;-36
2024/01/17 00:59:01;;;;;;;7.05;4.88;;;;;;;-3.34;100.00;99463.38;7327320;19;20210;-38
2024/01/17 01:01:31;;;;;;;25.38;11.98;;;;;;;-3.26;100.00;99462.34;7350647;19;20207;-40
2024/01/17 01:04:01;;;;;;;15.77;6.93;;;;;;;-3.29;100.00;99456.16;7328982;19;20201;-37
2024/01/17 01:06:30;;;;;;;18.65;8.48;;;;;;;-3.23;100.00;99458.28;7350046;19;20218;-37
2024/01/17 01:09:03;;;;;;;26.38;12.13;;;;;;;-3.20;100.00;99456.84;7327388;19;20251;-38
2024/01/17 01:11:33;;;;;;;59.45;8.60;;;;;;;-3.25;100.00;99440.50;7349598;19;20208;-37
2024/01/17 01:14:05;;;;;;;23.13;10.82;;;;;;;-3.18;100.00;99440.19;7326885;19;20186;-39
2024/01/17 01:16:35;;;;;;;23.55;11.00;;;;;;;-3.16;100.00;99445.34;7349177;19;20262;-39
2024/01/17 01:19:05;;;;;;;12.20;4.57;;;;;;;-3.16;100.00;99448.78;7327135;19;20743;-37
2024/01/17 01:21:34;;;;;;;19.55;7.90;;;;;;;-3.10;100.00;99437.34;7350767;19;20198;-37
2024/01/17 01:24:07;;;;;;;11.05;6.00;;;;;;;-3.14;100.00;99446.34;7328545;19;20202;-36
2024/01/17 01:26:37;;;;;;;14.55;5.78;;;;;;;-3.14;100.00;99447.22;7349301;19;20658;-38
2024/01/17 01:29:08;;;;;;;14.40;7.70;;;;;;;-3.15;100.00;99445.47;7326836;19;20222;-37
2024/01/17 01:31:38;;;;;;;22.05;8.23;;;;;;;-3.10;100.00;99434.81;7349176;19;20215;-37
2024/01/17 01:34:08;;;;;;;20.05;8.95;;;;;;;-3.09;100.00;99434.09;7327886;19;20257;-38
2024/01/17 01:36:38;;;;;;;37.70;12.60;;;;;;;-3.05;100.00;99436.06;7348520;19;20261;-38
2024/01/17 01:39:10;;;;;;;18.23;9.85;;;;;;;-3.02;100.00;99434.63;7326497;19;20202;-36
2024/01/17 01:41:40;;;;;;;15.90;5.75;;;;;;;-3.05;100.00;99441.09;7349411;19;20277;-37
2024/01/17 01:44:10;;;;;;;23.13;10.57;;;;;;;-3.02;100.00;99439.69;7328405;19;20629;-39
2024/01/17 01:46:39;;;;;;;21.20;6.30;;;;;;;-3.00;100.00;99435.66;7347599;19;20277;-39
2024/01/17 01:49:09;;;;;;;24.52;11.48;;;;;;;-2.94;100.00;99439.38;7327075;19;21153;-38
2024/01/17 01:51:39;;;;;;;6.65;3.05;;;;;;;-3.00;100.00;99434.75;7348831;19;20198;-37
2024/01/17 01:54:11;;;;;;;25.02;11.00;;;;;;;-2.91;100.00;99435.47;7327185;19;20243;-40
2024/01/17 01:56:41;;;;;;;19.20;7.35;;;;;;;-2.99;100.00;99432.34;7348139;19;20198;-42
2024/01/17 01:59:11;;;;;;;12.02;5.05;;;;;;;-3.00;100.00;99439.81;7326541;19;20231;-38
2024/01/17 02:01:41;;;;;;;13.23;6.30;;;;;;;-3.01;100.00;99430.47;7348472;19;20198;-37
2024/01/17 02:04:12;;;;;;;11.75;3.55;;;;;;;-2.99;100.00;99426.41;7327108;19;20208;-37
2024/01/17 02:06:42;;;;;;;16.17;8.40;;;;;;;-2.99;100.00;99431.47;7347215;19;20206;-37
2024/01/17 02:09:16;;;;;;;29.98;11.80;;;;;;;-3.00;100.00;99427.19;7322380;19;20619;-38
2024/01/17 02:11:46;;;;;;;27.45;12.27;;;;;;;-2.94;100.00;99417.53;7348318;19;20686;-37
2024/01/17 02:14:17;;;;;;;29.92;5.57;;;;;;;-2.95;100.00;99418.31;7327274;19;20206;-38
2024/01/17 02:16:47;;;;;;;10.43;5.93;;;;;;;-3.04;100.00;99415.09;7347541;19;20201;-37
2024/01/17 02:19:18;;;;;;;18.98;10.10;;;;;;;-3.03;100.00;99414.34;7325783;19;20273;-40
2024/01/17 02:21:48;;;;;;;12.85;8.38;;;;;;;-3.05;100.00;99415.88;7348221;19;20194;-38
2024/01/17 02:24:23;;;;;;;12.35;6.50;;;;;;;-3.03;100.00;99406.78;7326599;19;20202;-38
2024/01/17 02:26:53;;;;;;;9.93;4.00;;;;;;;-3.03;100.00;99407.63;7323948;19;20213;-39
2024/01/17 02:29:22;;;;;;;11.93;5.60;;;;;;;-3.06;100.00;99414.09;7346649;19;20206;-36
2024/01/17 02:31:52;;;;;;;15.30;6.60;;;;;;;-3.00;100.00;99415.47;7326264;19;20217;-37
2024/01/17 02:34:22;;;;;;;14.43;7.32;;;;;;;-3.07;100.00;99402.25;7347094;19;20299;-41
2024/01/17 02:36:51;;;;;;;31.30;12.70;;;;;;;-3.08;100.00;99405.56;7324997;19;20615;-37
2024/01/17 02:39:24;;;;;;;9.48;5.53;;;;;;;-3.10;100.00;99419.69;7346028;19;20709;-38
2024/01/17 02:41:54;;;;;;;19.88;7.85;;;;;;;-3.06;100.00;99398.97;7325654;19;20201;-37
2024/01/17 02:44:24;;;;;;;7.65;4.90;;;;;;;-3.10;100.00;99392.81;7346813;19;20634;-37
2024/01/17 02:46:53;;;;;;;6.43;3.95;;;;;;;-3.14;100.00;99381.63;7325146;19;20198;-36
2024/01/17 02:49:23;;;;;;;12.32;5.97;;;;;;;-3.10;100.00;99380.19;7345538;19;20734;-38
2024/01/17 02:51:53;;;;;;;16.38;7.20;;;;;;;-3.08;100.00;99380.31;7325150;19;20193;-37
2024/01/17 02:54:25;;;;;;;19.80;8.88;;;;;;;-3.14;100.00;99376.56;7346788;19;20204;-37
2024/01/17 02:56:55;;;;;;;11.98;5.93;;;;;;;-3.13;100.00;99372.41;7324087;19;20215;-37
2024/01/17 02:59:25;;;;;;;10.55;5.75;;;;;;;-3.09;100.00;99373.53;7345978;19;20206;-39
2024/01/17 03:01:55;;;;;;;28.65;11.57;;;;;;;-3.04;100.00;99357.94;7326127;19;20592;-37
2024/01/17 03:04:24;;;;;;;14.35;4.90;;;;;;;-3.06;100.00;99353.53;7346399;19;20325;-39
2024/01/17 03:06:54;;;;;;;13.23;6.22;;;;;;;-3.07;100.00;99351.78;7323455;19;20198;-37
2024/01/17 03:09:26;;;;;;;12.70;6.30;;;;;;;-3.05;100.00;99350.25;7345185;19;20206;-36
2024/01/17 03:11:56;;;;;;;31.05;11.55;;;;;;;-2.97;100.00;99341.59;7322903;19;20202;-37
2024/01/17 03:14:30;;;;;;;10.60;4.93;;;;;;;-3.00;100.00;99338.84;7345951;19;20201;-38
2024/01/17 03:17:00;;;;;;;30.33;9.95;;;;;;;-2.96;100.00;99334.88;7324120;19;20211;-38
2024/01/17 03:19:30;;;;;;;19.98;7.57;;;;;;;-3.02;100.00;99337.88;7345072;19;20220;-38
2024/01/17 03:22:01;;;;;;;16.33;5.97;;;;;;;-3.04;100.00;99336.84;7324878;19;20202;-39
2024/01/17 03:24:33;;;;;;;15.45;6.10;;;;;;;-3.08;100.00;99329.84;7345725;19;20194;-38
2024/01/17 03:27:03;;;;;;;13.88;6.82;;;;;;;-3.04;100.00;99326.75;7323458;19;20266;-41
2024/01/17 03:29:33;;;;;;;10.68;3.88;;;;;;;-3.05;100.00;99325.00;7344902;19;20301;-37
2024/01/17 03:32:02;;;;;;;7.55;4.28;;;;;;;-3.06;100.00;99318.19;7324367;19;20190;-38
2024/01/17 03:34:32;;;;;;;16.00;7.60;;;;;;;-3.00;100.00;99326.22;7344488;19;20681;-37
2024/01/17 03:37:01;;;;;;;28.73;10.77;;;;;;;-3.04;100.00;99327.66;7323478;19;20245;-42
2024/01/17 03:39:37;;;;;;;18.85;8.70;;;;;;;-3.12;100.00;99323.69;7347569;19;20305;-37
2024/01/17 03:42:07;;;;;;;61.22;20.40;;;;;;;-3.07;100.00;99311.41;7331328;19;20228;-39
2024/01/17 03:44:37;;;;;;;9.18;5.60;;;;;;;-3.17;100.00;99314.91;7352162;19;20615;-38
2024/01/17 03:47:06;;;;;;;17.65;6.25;;;;;;;-3.19;100.00;99307.22;7329724;19;20208;-38
2024/01/17 03:49:36;;;;;;;14.55;6.60;;;;;;;-3.22;100.00;99306.09;7350968;19;20201;-38
2024/01/17 03:52:07;;;;;;;15.32;5.90;;;;;;;-3.24;100.00;99313.56;7331113;19;20190;-38
2024/01/17 03:54:40;;;;;;;47.75;16.10;;;;;;;-3.20;100.00;99305.47;7351865;19;20273;-37
2024/01/17 03:57:10;;;;;;;9.15;4.45;;;;;;;-3.28;100.00;99309.94;7331610;19;20218;-37
2024/01/17 03:59:39;;;;;;;33.50;12.00;;;;;;;-3.26;100.00;99297.44;7350583;19;20210;-37
2024/01/17 04:02:09;;;;;;;15.20;6.35;;;;;;;-3.32;100.00;99299.50;7330519;19;20203;-39
2024/01/17 04:04:41;;;;;;;15.27;5.25;;;;;;;-3.34;100.00;99293.50;7351247;19;20205;-39
2024/01/17 04:07:11;;;;;;;23.52;7.60;;;;;;;-3.37;100.00;99276.47;7329295;19;20697;-37
2024/01/17 04:09:45;;;;;;;23.98;9.77;;;;;;;-3.36;100.00;99262.19;7350257;19;20217;-38
2024/01/17 04:12:14;;;;;;;21.60;9.35;;;;;;;-3.37;100.00;99255.41;7328337;19;20273;-41
2024/01/17 04:14:44;;;;;;;15.38;6.22;;;;;;;-3.48;100.00;99255.53;7351143;19;20190;-39
2024/01/17 04:17:14;;;;;;;21.92;8.38;;;;;;;-3.43;100.00;99236.53;7329970;19;20202;-37
2024/01/17 04:19:43;;;;;;;13.85;6.60;;;;;;;-3.43;100.00;99241.56;7349787;19;20219;-38
2024/01/17 04:22:13;;;;;;;21.92;7.47;;;;;;;-3.41;100.00;99222.41;7329471;19;20201;-37
2024/01/17 04:24:46;;;;;;;21.17;8.60;;;;;;;-3.44;100.00;99229.72;7350406;19;20239;-39
2024/01/17 04:27:15;;;;;;;25.88;10.88;;;;;;;-3.41;100.00;99222.41;7328542;19;20733;-39
2024/01/17 04:29:45;;;;;;;10.15;6.18;;;;;;;-3.48;100.00;99216.78;7349587;19;20206;-37
2024/01/17 04:32:15;;;;;;;24.83;11.15;;;;;;;-3.49;100.00;99205.81;7329515;19;20206;-41
2024/01/17 04:34:45;;;;;;;13.63;5.97;;;;;;;-3.55;100.00;99210.41;7350746;19;20559;-38
2024/01/17 04:37:14;;;;;;;25.10;10.93;;;;;;;-3.49;100.00;99210.00;7329022;19;20198;-40
2024/01/17 04:39:47;;;;;;;32.42;12.75;;;;;;;-3.51;100.00;99197.28;7351001;19;20622;-37
2024/01/17 04:42:16;;;;;;;22.17;10.48;;;;;;;-3.44;100.00;99194.41;7329824;19;20265;-38
2024/01/17 04:44:46;;;;;;;31.42;11.85;;;;;;;-3.47;100.00;99199.25;7350082;19;20202;-38
2024/01/17 04:47:16;;;;;;;22.92;9.13;;;;;;;-3.44;100.00;99173.38;7328103;19;20205;-37
2024/01/17 04:49:46;;;;;;;19.40;9.77;;;;;;;-3.49;100.00;99175.56;7349075;19;20305;-38
2024/01/17 04:52:18;;;;;;;21.73;10.13;;;;;;;-3.45;100.00;99186.72;7329836;19;20198;-41
2024/01/17 04:54:51;;;;;;;24.15;9.32;;;;;;;-3.41;100.00;99174.47;7349687;19;20202;-41
2024/01/17 04:57:20;;;;;;;44.08;15.77;;;;;;;-3.41;100.00;99166.91;7328177;19;20274;-37
2024/01/17 04:59:50;;;;;;;27.08;11.13;;;;;;;-3.46;100.00;99150.56;7339496;19;20209;-37
2024/01/17 05:02:19;;;;;;;24.23;7.13;;;;;;;-3.51;100.00;99156.91;7349914;19;20212;-37
2024/01/17 05:04:49;;;;;;;27.15;11.05;;;;;;;-3.47;100.00;99148.81;7348478;19;20247;-36
2024/01/17 05:07:19;;;;;;;17.98;9.25;;;;;;;-3.53;100.00;99143.34;7349732;19;20190;-37
2024/01/17 05:09:51;;;;;;;22.17;11.02;;;;;;;-3.52;100.00;99132.47;7349332;19;20206;-38
2024/01/17 05:12:21;;;;;;;22.35;9.95;;;;;;;-3.49;100.00;99137.72;7326788;19;20198;-37
2024/01/17 05:14:50;;;;;;;28.63;11.63;;;;;;;-3.54;100.00;99121.41;7333690;19;20205;-38
2024/01/17 05:17:20;;;;;;;37.70;14.45;;;;;;;-3.50;100.00;99112.41;7349787;19;20198;-37
2024/01/17 05:19:49;;;;;;;18.33;9.27;;;;;;;-3.57;100.00;99118.66;7341985;19;20202;-36
2024/01/17 05:22:19;;;;;;;18.73;8.90;;;;;;;-3.55;100.00;99104.50;7348798;19;20198;-37
2024/01/17 05:24:51;;;;;;;7.38;4.32;;;;;;;-3.67;100.00;99115.47;7348530;19;20220;-35
2024/01/17 05:27:22;;;;;;;19.17;8.27;;;;;;;-3.57;100.00;99116.13;7349309;19;20198;-40
2024/01/17 05:29:51;;;;;;;33.83;12.10;;;;;;;-3.50;100.00;99113.28;7326593;19;20270;-37
2024/01/17 05:32:21;;;;;;;23.55;10.75;;;;;;;-3.48;100.00;99108.34;7348979;19;20203;-37
2024/01/17 05:34:52;;;;;;;52.00;16.85;;;;;;;-3.48;100.00;99100.78;7332198;19;20202;-36
2024/01/17 05:37:23;;;;;;;20.17;7.88;;;;;;;-3.47;100.00;99103.41;7348993;19;20825;-39
2024/01/17 05:39:56;;;;;;;24.95;10.00;;;;;;;-3.54;100.00;99096.19;7321627;19;20213;-37
2024/01/17 05:42:25;;;;;;;21.10;9.68;;;;;;;-3.47;100.00;99093.34;7349265;19;20190;-38
2024/01/17 05:44:55;;;;;;;24.08;10.63;;;;;;;-3.42;100.00;99098.69;7326645;19;20217;-37
2024/01/17 05:47:25;;;;;;;28.35;11.18;;;;;;;-3.42;100.00;99086.97;7348157;19;20562;-37
2024/01/17 05:49:54;;;;;;;18.10;7.35;;;;;;;-3.46;100.00;99092.56;7326399;19;20213;-44
2024/01/17 05:52:24;;;;;;;16.73;7.90;;;;;;;-3.45;100.00;99079.16;7348018;19;20198;-37
2024/01/17 05:54:56;;;;;;;20.73;11.02;;;;;;;-3.44;100.00;99073.34;7326924;19;20205;-37
2024/01/17 05:57:25;;;;;;;36.70;13.45;;;;;;;-3.30;100.00;99065.88;7347665;19;20266;-39
2024/01/17 05:59:55;;;;;;;23.15;8.77;;;;;;;-3.26;100.00;99060.28;7325353;19;20306;-37
2024/01/17 06:02:25;;;;;;;19.88;8.77;;;;;;;-3.34;100.00;99058.88;7346235;19;20225;-38
2024/01/17 06:04:54;;;;;;;15.20;5.65;;;;;;;-3.30;100.00;99050.72;7326085;19;20198;-36
2024/01/17 06:07:24;;;;;;;21.13;10.32;;;;;;;-3.28;100.00;99046.69;7344979;19;20628;-38
2024/01/17 06:09:56;;;;;;;57.85;19.38;;;;;;;-3.16;100.00;99039.97;7324401;19;20198;-37
2024/01/17 06:12:26;;;;;;;11.85;5.18;;;;;;;-3.20;100.00;99037.09;7346889;19;20191;-41
2024/01/17 06:14:56;;;;;;;18.33;7.60;;;;;;;-3.20;100.00;99038.00;7327387;19;20194;-37
2024/01/17 06:17:25;;;;;;;16.83;8.45;;;;;;;-3.14;100.00;99022.38;7346689;19;20198;-37
2024/01/17 06:19:55;;;;;;;15.95;6.68;;;;;;;-3.12;100.00;99028.44;7324494;19;20292;-38
2024/01/17 06:22:25;;;;;;;22.23;8.70;;;;;;;-3.08;100.00;99015.25;7347175;19;20585;-38
2024/01/17 06:24:57;;;;;;;11.55;7.15;;;;;;;-3.03;100.00;99015.56;7324561;19;20186;-36
2024/01/17 06:27:27;;;;;;;20.35;8.25;;;;;;;-3.01;100.00;99014.03;7348616;19;20693;-37
2024/01/17 06:29:57;;;;;;;20.10;8.20;;;;;;;-3.04;100.00;99011.28;7324319;19;20566;-38
2024/01/17 06:32:26;;;;;;;22.75;8.88;;;;;;;-3.02;100.00;99013.13;7348438;19;20609;-37
2024/01/17 06:34:56;;;;;;;23.45;9.90;;;;;;;-3.04;100.00;99002.06;7325150;19;20198;-39
2024/01/17 06:37:26;;;;;;;15.00;7.35;;;;;;;-2.94;100.00;99001.03;7346013;19;20194;-38
2024/01/17 06:39:58;;;;;;;13.98;6.82;;;;;;;-2.96;100.00;99001.72;7324884;19;20277;-38
2024/01/17 06:42:28;;;;;;;13.27;6.38;;;;;;;-3.00;100.00;98993.94;7347177;19;20194;-38
2024/01/17 06:44:57;;;;;;;23.95;5.97;;;;;;;-2.89;100.00;98984.56;7326784;19;20594;-37
2024/01/17 06:47:27;;;;;;;8.23;4.50;;;;;;;-3.01;100.00;98993.84;7345994;19;21075;-40
2024/01/17 06:49:57;;;;;;;33.13;12.35;;;;;;;-2.93;100.00;98991.84;7324421;19;20206;-37
2024/01/17 06:52:26;;;;;;;18.23;4.90;;;;;;;-2.97;100.00;98995.81;7346016;19;20190;-39
2024/01/17 06:54:59;;;;;;;21.20;8.77;;;;;;;-2.95;100.00;98981.63;7324644;19;20202;-37
2024/01/17 06:57:28;;;;;;;17.70;6.88;;;;;;;-2.99;100.00;98992.28;7340563;19;20194;-37
2024/01/17 06:59:58;;;;;;;15.18;6.40;;;;;;;-2.97;100.00;98990.75;7310070;19;20895;-36
2024/01/17 07:02:31;;;;;;;17.88;7.78;;;;;;;-2.93;100.00;98972.50;7342908;19;20719;-38
2024/01/17 07:05:01;;;;;;;15.43;5.50;;;;;;;-3.00;100.00;98985.47;7325278;19;20571;-38
2024/01/17 07:07:31;;;;;;;12.63;5.93;;;;;;;-3.01;100.00;98964.44;7345631;19;20194;-39
2024/01/17 07:10:05;;;;;;;11.45;5.38;;;;;;;-3.00;100.00;98967.81;7323371;19;20202;-38
2024/01/17 07:12:35;;;;;;;22.38;8.65;;;;;;;-3.02;100.00;98971.91;7347664;19;20580;-39
2024/01/17 07:15:05;;;;;;;6.93;3.55;;;;;;;-3.11;100.00;98977.19;7330842;19;20193;-36
2024/01/17 07:17:35;;;;;;;24.13;9.25;;;;;;;-3.05;100.00;98980.13;7352990;19;20279;-37
2024/01/17 07:20:05;;;;;;;9.43;4.57;;;;;;;-3.06;100.00;98969.94;7330415;19;20206;-38
2024/01/17 07:22:35;;;;;;;12.38;6.03;;;;;;;-3.02;100.00;98944.13;7353227;19;20198;-37
2024/01/17 07:25:10;;;;;;;37.15;10.82;;;;;;;-2.96;100.00;98957.16;7330418;19;20261;-38
2024/01/17 07:27:43;;;;;;;17.33;4.57;;;;;;;-3.06;100.00;98935.47;7351802;19;20185;-38
2024/01/17 07:30:13;;;;;;;28.92;6.38;;;;;;;-3.03;100.00;98957.53;7329692;19;20217;-37
2024/01/17 07:32:43;;;;;;;9.57;3.28;;;;;;;-3.06;100.00;98950.63;7352298;19;20269;-38
2024/01/17 07:35:14;;;;;;;9.43;4.75;;;;;;;-3.12;100.00;98946.03;7330967;19;20209;-37
2024/01/17 07:37:43;;;;;;;7.20;4.03;;;;;;;-3.10;100.00;98958.75;7353011;19;20604;-38
2024/01/17 07:40:16;;;;;;;16.48;4.20;;;;;;;-3.08;100.00;98957.19;7329951;19;20206;-37
2024/01/17 07:42:46;;;;;;;20.73;2.55;;;;;;;-3.10;100.00;98952.81;7353736;19;20198;-39
2024/01/17 07:45:15;;;;;;;4.30;2.38;;;;;;;-3.10;100.00;98962.91;7331463;19;20190;-37
2024/01/17 07:47:47;;;;;;;6.22;2.50;;;;;;;-3.08;100.00;98966.44;7351178;19;20198;-43
2024/01/17 07:50:17;;;;;;;9.88;4.07;;;;;;;-3.02;100.00;98967.69;7328991;19;20290;-39
2024/01/17 07:52:46;;;;;;;6.03;2.65;;;;;;;-3.03;100.00;98963.44;7352219;19;20297;-37
2024/01/17 07:55:18;;;;;;;4.70;2.17;;;;;;;-3.05;100.00;98974.19;7331080;19;20209;-39
2024/01/17 07:57:48;;;;;;;7.95;3.55;;;;;;;-3.04;100.00;98973.41;7351525;19;20194;-40
2024/01/17 08:00:18;;;;;;;10.55;3.83;;;;;;;-3.06;100.00;98969.94;7329737;19;20223;-38
2024/01/17 08:02:48;;;;;;;22.02;8.18;;;;;;;-2.96;100.00;98956.28;7331623;19;20190;-38
2024/01/17 08:05:18;;;;;;;21.60;6.55;;;;;;;-2.92;100.00;98946.47;7329916;19;20229;-38
2024/01/17 08:07:48;;;;;;;6.68;2.70;;;;;;;-2.99;100.00;98947.72;7353060;19;20225;-39
2024/01/17 08:10:21;;;;;;;23.17;7.60;;;;;;;-2.89;100.00;98949.22;7327799;19;20206;-38
2024/01/17 08:12:50;;;;;;;6.30;4.45;;;;;;;-2.94;100.00;98940.47;7335736;19;20194;-38
2024/01/17 08:15:20;;;;;;;11.98;4.90;;;;;;;-2.94;100.00;98945.50;7350761;19;20731;-37
2024/01/17 08:17:50;;;;;;;5.93;2.05;;;;;;;-2.95;100.00;98943.75;7340360;19;20198;-36
2024/01/17 08:20:20;;;;;;;10.93;4.50;;;;;;;-2.91;100.00;98950.78;7350600;19;20220;-41
2024/01/17 08:22:50;;;;;;;22.52;8.43;;;;;;;-2.91;100.00;98940.69;7345659;19;20205;-37
2024/01/17 08:25:22;;;;;;;6.25;2.80;;;;;;;-2.95;100.00;98937.81;7349106;19;20194;-37
2024/01/17 08:27:51;;;;;;;5.18;2.88;;;;;;;-2.94;100.00;98937.94;7328733;19;20204;-36
2024/01/17 08:30:18;;;;;;;11.57;4.68;;;;;;;-2.90;100.00;98932.31;7349448;19;20218;-38
2024/01/17 08:32:48;;;;;;;10.65;3.67;;;;;;;-2.90;100.00;98939.91;7353106;19;20694;-38
2024/01/17 08:35:18;;;;;;;5.32;2.75;;;;;;;-2.92;100.00;98938.91;7330805;19;20264;-38
2024/01/17 08:37:48;;;;;;;3.58;1.55;;;;;;;-2.92;100.00;98933.84;7350040;19;20284;-39
2024/01/17 08:40:18;;;;;;;6.93;2.92;;;;;;;-2.89;100.00;98926.50;7329155;19;20240;-37
2024/01/17 08:42:50;;;;;;;14.73;4.82;;;;;;;-2.81;100.00;98926.13;7351724;19;20198;-38
2024/01/17 08:45:20;;;;;;;9.80;3.80;;;;;;;-2.87;100.00;98927.47;7329278;19;20273;-37
2024/01/17 08:47:50;;;;;;;2.67;1.23;;;;;;;-2.87;100.00;98927.47;7342967;19;20202;-37
2024/01/17 08:50:20;;;;;;;7.45;3.95;;;;;;;-2.79;100.00;98924.56;7350915;19;20210;-37
2024/01/17 08:52:49;;;;;;;13.20;4.63;;;;;;;-2.66;100.00;98926.25;7350553;19;20197;-35
2024/01/17 08:55:19;;;;;;;13.30;3.53;;;;;;;-2.76;100.00;98930.69;7350375;19;20194;-37
2024/01/17 08:57:51;;;;;;;4.63;2.40;;;;;;;-2.76;100.00;98927.31;7347749;19;20194;-37
2024/01/17 09:00:21;;;;;;;22.83;8.23;;;;;;;-2.65;100.00;98918.78;7306953;19;20279;-48
2024/01/17 09:02:51;;;;;;;10.05;3.10;;;;;;;-2.65;100.00;98921.31;7298384;19;20224;-37
2024/01/17 09:05:21;;;;;;;3.97;1.67;;;;;;;-2.64;100.00;98934.78;7319185;19;20197;-38
2024/01/17 09:07:51;;;;;;;9.32;3.03;;;;;;;-2.62;100.00;98936.66;7333117;19;20222;-37
2024/01/17 09:10:20;;;;;;;5.70;2.47;;;;;;;-2.58;100.00;98933.56;7348746;19;20649;-37
2024/01/17 09:12:53;;;;;;;13.98;5.93;;;;;;;-2.49;100.00;98930.75;7338191;19;20198;-37
2024/01/17 09:15:24;;;;;;;9.77;3.35;;;;;;;-2.52;100.00;98939.78;7350505;19;20209;-39
2024/01/17 09:17:53;;;;;;;10.32;2.75;;;;;;;-2.49;100.00;98939.97;7326955;19;20190;-37
2024/01/17 09:20:24;;;;;;;7.47;2.30;;;;;;;-2.48;100.00;98945.13;7348910;19;20202;-39
2024/01/17 09:22:53;;;;;;;5.95;2.35;;;;;;;-2.50;100.00;98949.22;7327784;19;20198;-38
2024/01/17 09:25:24;;;;;;;6.95;3.25;;;;;;;-2.43;100.00;98942.88;7348630;19;20194;-38
2024/01/17 09:27:56;;;;;;;9.98;3.58;;;;;;;-2.46;100.00;98947.75;7327514;19;20202;-37
2024/01/17 09:30:26;;;;;;;3.03;1.23;;;;;;;-2.49;100.00;98945.91;7347873;19;20210;-41
2024/01/17 09:32:56;;;;;;;8.20;2.40;;;;;;;-2.43;100.00;98934.44;7327273;19;20666;-40
2024/01/17 09:35:25;;;;;;;6.68;3.85;;;;;;;-2.31;100.00;98927.63;7347383;19;20562;-40
2024/01/17 09:37:55;;;;;;;8.82;2.25;;;;;;;-2.36;100.00;98926.47;7325621;19;20206;-41
2024/01/17 09:40:24;;;;;;;13.60;4.00;;;;;;;-2.35;100.00;98923.19;7348317;19;20219;-40
2024/01/17 09:42:57;;;;;;;4.78;2.10;;;;;;;-2.34;100.00;98922.41;7326331;19;20740;-40
2024/01/17 09:45:41;;;;;;;4.53;1.75;;;;;;;-2.35;100.00;98928.22;7347913;19;20195;-39
2024/01/17 09:48:13;;;;;;;7.43;3.70;;;;;;;-2.26;100.00;98930.47;7326661;19;20191;-41
2024/01/17 09:50:43;;;;;;;3.55;1.10;;;;;;;-2.33;100.00;98932.59;7349267;19;20582;-41
2024/01/17 09:53:14;;;;;;;4.65;2.17;;;;;;;-2.33;100.00;98931.72;7326909;19;20222;-41
2024/01/17 09:55:44;;;;;;;5.13;2.25;;;;;;;-2.32;100.00;98919.19;7347843;19;20201;-41
2024/01/17 09:58:17;;;;;;;10.88;3.25;;;;;;;-2.33;100.00;98927.56;7325943;19;20201;-41
2024/01/17 10:00:47;;;;;;;6.85;2.25;;;;;;;-2.31;100.00;98931.03;7347311;19;20213;-41
2024/01/17 10:03:20;;;;;;;9.73;3.53;;;;;;;-2.25;100.00;98929.69;7326718;19;20636;-40
2024/01/17 10:05:51;;;;;;;7.70;3.33;;;;;;;-2.22;100.00;98914.69;7336881;19;20198;-39
2024/01/17 10:08:21;;;;;;;4.32;2.08;;;;;;;-2.25;100.00;98924.63;7348068;19;20205;-40
2024/01/17 10:10:51;;;;;;;5.40;2.90;;;;;;;-2.33;100.00;98906.44;7332033;19;20575;-41
2024/01/17 10:13:23;;;;;;;11.30;3.42;;;;;;;-2.30;100.00;98906.66;7345366;19;20198;-40
2024/01/17 10:15:53;;;;;;;5.80;1.83;;;;;;;-2.32;100.00;98903.13;7324881;19;20218;-41
2024/01/17 10:18:22;;;;;;;5.32;2.90;;;;;;;-2.34;100.00;98899.66;7347097;19;20953;-40
2024/01/17 10:20:52;;;;;;;12.40;4.18;;;;;;;-2.30;100.00;98896.56;7324543;19;20198;-42
2024/01/17 10:23:24;;;;;;;8.63;3.63;;;;;;;-2.30;100.00;98901.59;7347591;19;20194;-41
2024/01/17 10:25:54;;;;;;;6.18;2.92;;;;;;;-2.24;100.00;98893.53;7324516;19;20200;-41
2024/01/17 10:28:26;;;;;;;5.38;3.08;;;;;;;-2.27;100.00;98890.81;7346885;19;20194;-40
2024/01/17 10:30:56;;;;;;;5.30;2.05;;;;;;;-2.34;100.00;98889.53;7324562;19;20202;-41
2024/01/17 10:33:26;;;;;;;10.90;2.92;;;;;;;-2.30;100.00;98878.88;7346898;19;20690;-41
2024/01/17 10:35:55;;;;;;;3.78;1.77;;;;;;;-2.20;100.00;98881.19;7324136;19;20198;-40
2024/01/17 10:38:25;;;;;;;5.63;1.90;;;;;;;-2.24;100.00;98876.72;7346902;19;20209;-41
2024/01/17 10:41:05;;;;;;;7.45;3.65;;;;;;;-2.22;100.00;98869.22;7323957;19;20209;-41
2024/01/17 10:43:54;;;;;;;4.70;2.28;;;;;;;-2.19;100.00;98864.38;7347238;19;20182;-40
2024/01/17 10:46:25;;;;;;;5.97;2.13;;;;;;;-2.25;100.00;98864.00;7324854;19;20198;-41
2024/01/17 10:48:57;;;;;;;8.50;3.33;;;;;;;-2.15;100.00;98850.28;7323591;19;20540;-38
2024/01/17 10:51:27;;;;;;;5.72;3.08;;;;;;;-2.11;100.00;98848.03;7345305;19;20202;-39
2024/01/17 10:53:58;;;;;;;9.82;3.78;;;;;;;-2.13;100.00;98849.59;7324132;19;20202;-40
2024/01/17 10:56:29;;;;;;;4.00;1.60;;;;;;;-2.11;100.00;98837.06;7344853;19;20198;-40
2024/01/17 10:59:02;;;;;;;8.55;2.75;;;;;;;-2.08;100.00;98843.16;7324020;19;20201;-41
2024/01/17 11:01:35;;;;;;;7.65;4.07;;;;;;;-1.98;100.00;98838.66;7345291;19;20206;-41
2024/01/17 11:04:10;;;;;;;7.93;3.50;;;;;;;-2.07;100.00;98827.22;7324153;19;20222;-38
2024/01/17 11:06:40;;;;;;;4.97;2.22;;;;;;;-2.05;100.00;98822.25;7345324;19;20202;-42
2024/01/17 11:09:10;;;;;;;7.85;3.22;;;;;;;-2.09;100.00;98823.72;7324981;19;20207;-40
2024/01/17 11:11:41;;;;;;;14.82;3.08;;;;;;;-2.10;100.00;98834.59;7344671;19;20278;-42
2024/01/17 11:14:15;;;;;;;5.78;1.90;;;;;;;-2.01;100.00;98833.44;7324217;19;20192;-39
2024/01/17 11:16:48;;;;;;;8.30;3.95;;;;;;;-2.01;100.00;98831.75;7344919;19;20239;-40
2024/01/17 11:19:18;;;;;;;6.57;3.47;;;;;;;-2.11;100.00;98826.94;7324857;19;20648;-40
2024/01/17 11:21:48;;;;;;;8.40;3.38;;;;;;;-2.14;100.00;98825.09;7344675;19;20206;-40
2024/01/17 11:24:25;;;;;;;4.13;1.60;;;;;;;-2.07;100.00;98827.22;7324234;19;20216;-41
2024/01/17 11:27:02;;;;;;;8.02;2.65;;;;;;;-1.97;100.00;98830.28;7322734;19;20243;-40
2024/01/17 11:29:39;;;;;;;8.13;2.47;;;;;;;-2.06;100.00;98823.91;7345436;19;20274;-40
2024/01/17 11:32:15;;;;;;;7.25;2.92;;;;;;;-2.06;100.00;98818.84;7304939;19;20198;-39